Aeroporto :
LOGIN :

Iscrizione | Disclaimer

   EN    FR    IT 

 










Sommario :    VFR   VFR Marginale   IFR   IFR Intensivo   IFR Molto Intensivo
Visibilità : 
Base nubi : 
>= 8 km
>= 3000ft
5 / 8 km
1000 / 3000 ft
1500m / 5 km
500 / 1000 ft
800 / 1500m
200 / 500 ft
< 800m
< 200 ft
Simboli :   Temporali  Nebbia  Neve Forte  Precipitazioni Forti  Vento > 20 kt
SIGMETs :   Varie  Temporali  Ghiacco  Turbolenza  Onda orograficha  Ceneri Vulcaniche






- Altitudine del aeroporto : 295 ft
- Codice IATA : BWE


EDVE - Braunschweig

ULTIMO METAR :
  • 211250Z 22006KT 180V260 9999 FEW049 SCT084 BKN110 19/13 Q1017

METARs OBSOLETI :
  • 211220Z 22006KT CAVOK 19/13 Q1017
  • 211150Z 18004KT 130V270 CAVOK 19/14 Q1017
  • 211120Z 16004KT 120V220 CAVOK 17/14 Q1017
  • 211050Z 20005KT 160V230 CAVOK 16/14 Q1017
  • 211020Z 22006KT 9999 FEW029 OVC098 16/15 Q1017

TAF TAF EDVE
Valido dal 21 a 12 ore il 21 a 21 ore UTC


211100Z 2112/2121 21005KT CAVOK



MetMap, La meteo Aeronautica in un colpo d'occhio ! - Copyright ORBIFLY Dicembre 2007 - Disclaimer

ORBIFLY MET'MAP TEAM :

Programmazione e sviluppo : Alexandra Zaïnal
Concezione e sviluppo : Baudouin d'Aumeries
Co-Programmazione e sviluppo : Marc-Olivier Méhu
Supporto tecnico e logistico : Manuel Goepfert
Aiuto per la traduzione : Arnaldo La Scala

Contatto : metmap@orbifly.com




FONTI E CREDITI :

   NOAA